Aérodrome :







RETROUVEZ-NOUS SUR...

 
LOGIN :

S'inscrire | Disclaimer

   EN    FR    IT 

 









Légende :    VFR   VFR Marginal   IFR   IFR Intensif   IFR Très Intensif
Visi : 
Plafond : 
>= 8 km
>= 3000ft
5 à 8 km
1000 à 3000 ft
1500m à 5 km
500 à 1000 ft
800 à 1500m
200 à 500 ft
< 800m
< 200 ft
Symboles :   Orages  Brouillard  Fortes neiges  Fortes précipitations  Vent > 20 kt







- Altitude de l'aérodrome : 203 ft
- Code IATA : YQY


CYQY - Sydney

DERNIER METAR :
  • 200000Z 36009KT 15SM BKN160 04/01 A3006 RMK AC6 SLP182

METARs EXPIRÉS :
  • 192300Z 35010KT 15SM BKN170 05/01 A3005 RMK AC7 SLP181
  • 192200Z 36010KT 15SM BKN170 05/01 A3005 RMK AC7 SLP179

TAF TAF CYQY
Valide du 20 à 00h jusqu'au 20 à 12h UTC


192338Z 2000/2012 35010G20KT P6SM FEW040 BKN170
BECMG 2001/2003 26005KT RMK NXT FCST BY 200600Z
FIR CZQM / Amérique du Nord



MET'MAP, la Météo Aéronautique d'un coup d'oeil ! - Copyright ORBIFLY Décembre 2007 - Disclaimer

ORBIFLY MET'MAP TEAM :

Programmation & Développement : Alexandra Zaïnal
Conception & Développement : Baudouin d'Aumeries
Co-Programmation & Développement : Marc-Olivier Méhu
Soutien technique & logistique : Manuel Goepfert

Contact : metmap@orbifly.com




SOURCES & CREDITS :

   NOAA